createdAt,value
2023-04-15T00:01:27.030Z,10.17
2023-04-15T00:06:29.331Z,10.25
2023-04-15T00:11:31.871Z,9.36
2023-04-15T00:16:34.347Z,9.73
2023-04-15T00:21:37.189Z,10.17
2023-04-15T00:26:39.721Z,10.19
2023-04-15T00:31:42.514Z,10.07
2023-04-15T00:36:45.103Z,10.65
2023-04-15T00:41:47.632Z,10.47
2023-04-15T00:46:52.185Z,10.29
2023-04-15T00:51:54.420Z,10.24
2023-04-15T00:56:56.878Z,10.48
2023-04-15T01:01:59.106Z,10.10
2023-04-15T01:07:01.507Z,10.36
2023-04-15T01:12:04.185Z,10.49
2023-04-15T01:17:06.608Z,10.71
2023-04-15T01:22:09.252Z,10.71
2023-04-15T01:27:14.048Z,10.68
2023-04-15T01:32:16.647Z,10.92
2023-04-15T01:37:19.574Z,10.76
2023-04-15T01:42:25.153Z,10.59
2023-04-15T01:47:27.320Z,10.62
2023-04-15T01:52:29.597Z,10.93
2023-04-15T01:57:32.489Z,10.98
2023-04-15T02:02:34.973Z,10.83
2023-04-15T02:07:37.909Z,10.72
2023-04-15T02:12:40.711Z,10.37
2023-04-15T02:17:46.094Z,10.40
2023-04-15T02:22:50.910Z,11.06
2023-04-15T02:27:53.475Z,11.17
2023-04-15T02:32:56.137Z,11.10
2023-04-15T02:38:01.167Z,10.52
2023-04-15T02:43:05.503Z,10.77
2023-04-15T02:48:08.244Z,11.17
2023-04-15T02:53:11.911Z,10.92
2023-04-15T02:58:14.627Z,10.70
2023-04-15T03:03:17.103Z,11.25
2023-04-15T03:08:19.719Z,11.19
2023-04-15T03:13:21.845Z,10.93
2023-04-15T03:18:24.291Z,10.67
2023-04-15T03:23:26.732Z,10.34
2023-04-15T03:28:30.575Z,10.40
2023-04-15T03:33:35.289Z,10.63
2023-04-15T03:38:37.445Z,10.96
2023-04-15T03:43:39.689Z,10.59
2023-04-15T03:48:41.801Z,10.75
2023-04-15T03:53:44.036Z,10.99
2023-04-15T03:58:46.272Z,11.08
2023-04-15T04:03:48.677Z,10.72
2023-04-15T04:08:51.078Z,10.20
2023-04-15T04:13:53.159Z,10.96
2023-04-15T04:18:55.400Z,10.70
2023-04-15T04:23:57.678Z,10.16
2023-04-15T04:29:00.174Z,10.38
2023-04-15T04:34:02.421Z,10.34
2023-04-15T04:39:04.702Z,10.16
2023-04-15T04:44:07.040Z,10.08
2023-04-15T04:49:09.122Z,9.94
2023-04-15T04:54:11.827Z,10.02
2023-04-15T04:59:14.204Z,9.97
2023-04-15T05:04:16.407Z,9.80
2023-04-15T05:09:19.090Z,9.89
2023-04-15T05:14:22.937Z,10.10
2023-04-15T05:19:25.731Z,10.30
2023-04-15T05:24:27.990Z,10.41
2023-04-15T05:29:30.791Z,10.79
2023-04-15T05:34:32.959Z,10.68
2023-04-15T05:39:35.275Z,10.74
2023-04-15T05:44:37.381Z,11.05
2023-04-15T05:49:39.626Z,11.13
2023-04-15T05:54:41.749Z,11.18
2023-04-15T05:59:44.936Z,11.40
2023-04-15T06:04:47.410Z,10.99
2023-04-15T06:09:49.692Z,11.24
2023-04-15T06:14:51.958Z,10.83
2023-04-15T06:19:55.965Z,11.39
2023-04-15T06:24:58.222Z,11.68
2023-04-15T06:30:00.495Z,11.49
2023-04-15T06:35:02.706Z,11.96
2023-04-15T06:40:05.831Z,12.32
2023-04-15T06:45:30.004Z,12.34
2023-04-15T06:50:32.612Z,12.30
2023-04-15T06:55:34.779Z,12.63
2023-04-15T07:00:38.977Z,12.46
2023-04-15T07:05:41.718Z,12.39
2023-04-15T07:10:44.916Z,12.37
2023-04-15T07:15:47.019Z,12.26
2023-04-15T07:20:49.150Z,11.74
2023-04-15T07:25:52.185Z,11.96
2023-04-15T07:30:54.872Z,12.17
2023-04-15T07:35:57.318Z,13.12
2023-04-15T07:40:59.825Z,12.88
2023-04-15T07:46:01.999Z,13.32
2023-04-15T07:51:04.285Z,13.16
2023-04-15T07:56:06.914Z,13.15
2023-04-15T08:01:09.202Z,13.57
2023-04-15T08:06:11.587Z,13.45
2023-04-15T08:11:13.980Z,13.14
2023-04-15T08:16:25.273Z,12.82
2023-04-15T08:21:27.936Z,13.33
2023-04-15T08:26:30.224Z,13.45
2023-04-15T08:31:32.463Z,13.48
2023-04-15T08:36:34.891Z,13.38
2023-04-15T08:41:49.700Z,13.33
2023-04-15T08:46:52.928Z,13.28
2023-04-15T08:51:58.791Z,13.12
2023-04-15T08:57:02.482Z,13.25
2023-04-15T09:02:04.829Z,13.61
2023-04-15T09:07:07.423Z,13.58
2023-04-15T09:12:11.511Z,13.69
2023-04-15T09:17:13.975Z,13.75
2023-04-15T09:22:16.598Z,13.68
2023-04-15T09:27:18.795Z,13.64
2023-04-15T09:32:24.866Z,14.05
2023-04-15T09:37:36.827Z,13.40
2023-04-15T09:42:56.201Z,14.03
2023-04-15T09:48:00.691Z,13.35
2023-04-15T09:53:04.283Z,13.39
2023-04-15T09:58:19.371Z,13.90
2023-04-15T10:03:53.182Z,13.89
2023-04-15T10:09:01.494Z,14.06
2023-04-15T10:14:04.781Z,13.14
2023-04-15T10:19:09.563Z,13.79
2023-04-15T10:24:12.397Z,14.71
2023-04-15T10:29:14.816Z,13.62
2023-04-15T10:34:18.353Z,13.65
2023-04-15T10:39:43.529Z,15.07
2023-04-15T10:44:52.328Z,15.10
2023-04-15T10:50:02.656Z,15.22
2023-04-15T10:55:16.657Z,15.35
2023-04-15T11:00:21.844Z,15.07
2023-04-15T11:05:53.147Z,15.74
2023-04-15T11:10:55.458Z,15.68
2023-04-15T11:15:59.139Z,15.88
2023-04-15T11:21:05.385Z,15.62
2023-04-15T11:26:12.062Z,15.53
2023-04-15T11:31:18.109Z,15.73
2023-04-15T11:36:20.838Z,15.30
2023-04-15T11:41:26.257Z,16.04
2023-04-15T11:46:32.425Z,15.84
2023-04-15T11:51:35.695Z,15.18
2023-04-15T11:56:37.876Z,15.59
2023-04-15T12:01:42.288Z,16.00
2023-04-15T12:06:44.969Z,16.10
2023-04-15T12:11:49.017Z,15.76
2023-04-15T12:16:54.526Z,15.66
2023-04-15T12:22:04.554Z,15.92
2023-04-15T12:27:17.924Z,15.85
2023-04-15T12:32:21.165Z,15.37
2023-04-15T12:37:23.545Z,16.02
2023-04-15T12:42:25.909Z,15.81
2023-04-15T12:47:28.191Z,16.02
2023-04-15T12:52:30.486Z,15.49
2023-04-15T12:57:33.122Z,15.47
2023-04-15T13:02:35.449Z,15.29
2023-04-15T13:07:37.712Z,15.36
2023-04-15T13:12:39.912Z,15.36
2023-04-15T13:17:42.144Z,15.30
2023-04-15T13:22:44.461Z,15.15
2023-04-15T13:27:47.374Z,14.97
2023-04-15T13:32:51.314Z,15.50
2023-04-15T13:37:55.806Z,16.15
2023-04-15T13:42:58.708Z,16.40
2023-04-15T13:48:01.388Z,16.20
2023-04-15T13:53:03.596Z,15.76
2023-04-15T13:58:06.230Z,15.37
2023-04-15T14:03:08.434Z,15.20
2023-04-15T14:08:10.972Z,15.12
2023-04-15T14:13:13.181Z,14.82
2023-04-15T14:18:15.552Z,15.71
2023-04-15T14:23:17.789Z,16.56
2023-04-15T14:28:20.002Z,16.75
2023-04-15T14:33:22.105Z,16.54
2023-04-15T14:38:24.506Z,16.53
2023-04-15T14:43:26.729Z,16.63
2023-04-15T14:48:29.350Z,16.51
2023-04-15T14:53:31.713Z,15.91
2023-04-15T14:58:33.985Z,14.97
2023-04-15T15:03:36.507Z,15.17
2023-04-15T15:08:38.770Z,15.58
2023-04-15T15:13:40.866Z,14.96
2023-04-15T15:18:43.153Z,15.26
2023-04-15T15:23:46.019Z,16.31
2023-04-15T15:28:50.510Z,15.59
2023-04-15T15:33:53.206Z,15.30
2023-04-15T15:38:55.657Z,15.36
2023-04-15T15:43:57.761Z,15.18
2023-04-15T15:49:00.037Z,14.97
2023-04-15T15:54:02.127Z,15.00
2023-04-15T15:59:04.995Z,14.88
2023-04-15T16:04:07.652Z,14.92
2023-04-15T16:09:10.090Z,15.79
2023-04-15T16:14:13.959Z,15.94
2023-04-15T16:19:16.460Z,15.83
2023-04-15T16:24:18.692Z,15.41
2023-04-15T16:29:20.785Z,14.71
2023-04-15T16:34:22.950Z,14.80
2023-04-15T16:39:25.254Z,15.02
2023-04-15T16:44:27.640Z,15.42
2023-04-15T16:49:30.387Z,15.32
2023-04-15T16:54:34.883Z,15.56
2023-04-15T16:59:38.310Z,15.47
2023-04-15T17:04:41.638Z,15.63
2023-04-15T17:09:43.967Z,14.62
2023-04-15T17:14:46.213Z,14.90
2023-04-15T17:19:48.571Z,14.85
2023-04-15T17:24:51.045Z,15.33
2023-04-15T17:29:53.228Z,15.27
2023-04-15T17:34:55.527Z,15.03
2023-04-15T17:39:57.773Z,15.05
2023-04-15T17:45:00.051Z,14.24
2023-04-15T17:50:02.327Z,14.30
2023-04-15T17:55:04.895Z,14.33
2023-04-15T18:00:08.950Z,13.71
2023-04-15T18:05:15.237Z,13.46
2023-04-15T18:10:17.716Z,13.68
2023-04-15T18:15:19.928Z,13.74
2023-04-15T18:20:22.319Z,14.00
2023-04-15T18:25:24.569Z,13.57
2023-04-15T18:30:26.801Z,13.64
2023-04-15T18:35:30.082Z,13.01
2023-04-15T18:40:32.975Z,12.88
2023-04-15T18:45:37.152Z,12.85
2023-04-15T18:50:39.404Z,12.84
2023-04-15T18:55:41.706Z,13.05
2023-04-15T19:00:43.977Z,12.69
2023-04-15T19:05:46.458Z,12.82
2023-04-15T19:10:48.651Z,13.02
2023-04-15T19:15:50.740Z,13.48
2023-04-15T19:20:55.817Z,13.01
2023-04-15T19:25:58.710Z,13.08
2023-04-15T19:31:00.913Z,12.90
2023-04-15T19:36:06.778Z,13.21
2023-04-15T19:41:10.361Z,12.86
2023-04-15T19:46:13.480Z,12.46
2023-04-15T19:51:15.975Z,12.95
2023-04-15T19:56:18.336Z,13.08
2023-04-15T20:01:21.445Z,13.52
2023-04-15T20:06:23.830Z,13.63
2023-04-15T20:12:47.476Z,13.53
2023-04-15T20:16:51.784Z,13.47
2023-04-15T20:21:54.489Z,13.76
2023-04-15T20:26:57.671Z,13.51
2023-04-15T20:31:59.908Z,12.71
2023-04-15T20:37:02.425Z,12.13
2023-04-15T20:42:10.846Z,13.13
2023-04-15T20:47:13.363Z,12.28
2023-04-15T20:52:15.807Z,13.18
2023-04-15T20:57:18.059Z,12.29
2023-04-15T21:02:20.308Z,13.63
2023-04-15T21:07:22.645Z,13.15
2023-04-15T21:12:24.766Z,12.87
2023-04-15T21:17:27.117Z,12.16
2023-04-15T21:22:29.325Z,12.33
2023-04-15T21:27:31.567Z,13.15
2023-04-15T21:32:33.909Z,13.14
2023-04-15T21:37:37.671Z,13.46
2023-04-15T21:42:39.942Z,12.68
2023-04-15T21:48:06.776Z,12.98
2023-04-15T21:53:07.997Z,12.39
2023-04-15T21:58:10.255Z,12.52
2023-04-15T22:03:12.500Z,12.03
2023-04-15T22:08:14.697Z,13.20
2023-04-15T22:13:16.881Z,12.32
2023-04-15T22:18:19.021Z,12.49
2023-04-15T22:23:21.161Z,11.94
2023-04-15T22:28:23.382Z,12.11
2023-04-15T22:33:25.487Z,11.94
2023-04-15T22:38:27.580Z,12.00
2023-04-15T22:43:29.792Z,11.73
2023-04-15T22:48:32.017Z,12.51
2023-04-15T22:53:34.242Z,11.49
2023-04-15T22:58:36.357Z,12.12
2023-04-15T23:03:53.709Z,11.90
2023-04-15T23:08:59.583Z,12.49
2023-04-15T23:14:02.345Z,11.18
2023-04-15T23:19:04.459Z,11.42
2023-04-15T23:24:07.064Z,11.36
2023-04-15T23:29:10.546Z,11.71
2023-04-15T23:34:12.787Z,11.01
2023-04-15T23:39:14.875Z,11.55
2023-04-15T23:44:16.977Z,11.62
2023-04-15T23:49:20.324Z,11.07
2023-04-15T23:54:22.839Z,11.33
2023-04-15T23:59:25.353Z,11.35
